sensor_id;sensor_type;location;lat;lon;timestamp;temperature;humidity
49052;DHT22;34866;48.670;18.260;2022-07-30T00:02:49;486.50;2380.80
49052;DHT22;34866;48.670;18.260;2022-07-30T00:05:41;486.50;2380.80
49052;DHT22;34866;48.670;18.260;2022-07-30T00:08:12;486.50;2380.80
49052;DHT22;34866;48.670;18.260;2022-07-30T00:10:41;486.50;2380.80
49052;DHT22;34866;48.670;18.260;2022-07-30T00:13:47;486.60;2380.80
49052;DHT22;34866;48.670;18.260;2022-07-30T00:16:25;486.60;2380.80
49052;DHT22;34866;48.670;18.260;2022-07-30T00:19:11;486.50;2380.80
49052;DHT22;34866;48.670;18.260;2022-07-30T00:22:23;486.50;2380.80
49052;DHT22;34866;48.670;18.260;2022-07-30T00:25:09;486.40;2380.80
49052;DHT22;34866;48.670;18.260;2022-07-30T00:27:40;461.70;2380.80
49052;DHT22;34866;48.670;18.260;2022-07-30T00:31:09;461.60;2380.80
49052;DHT22;34866;48.670;18.260;2022-07-30T00:34:19;461.30;2380.80
49052;DHT22;34866;48.670;18.260;2022-07-30T00:37:13;486.50;2380.80
49052;DHT22;34866;48.670;18.260;2022-07-30T00:40:09;486.50;2380.80
49052;DHT22;34866;48.670;18.260;2022-07-30T00:42:48;486.60;2380.80
49052;DHT22;34866;48.670;18.260;2022-07-30T00:45:53;486.60;2380.80
49052;DHT22;34866;48.670;18.260;2022-07-30T00:48:42;486.50;2380.80
49052;DHT22;34866;48.670;18.260;2022-07-30T00:51:09;486.40;2380.80
49052;DHT22;34866;48.670;18.260;2022-07-30T00:54:05;486.40;2380.80
49052;DHT22;34866;48.670;18.260;2022-07-30T00:56:34;461.70;2380.80
49052;DHT22;34866;48.670;18.260;2022-07-30T00:59:46;461.70;2380.80
49052;DHT22;34866;48.670;18.260;2022-07-30T01:02:13;461.70;2380.80
49052;DHT22;34866;48.670;18.260;2022-07-30T01:04:41;461.70;2380.80
49052;DHT22;34866;48.670;18.260;2022-07-30T01:07:07;461.60;2380.80
49052;DHT22;34866;48.670;18.260;2022-07-30T01:09:54;461.70;2380.80
49052;DHT22;34866;48.670;18.260;2022-07-30T01:12:44;461.70;2380.80
49052;DHT22;34866;48.670;18.260;2022-07-30T01:15:13;461.50;2380.80
49052;DHT22;34866;48.670;18.260;2022-07-30T01:17:58;461.50;2380.80
49052;DHT22;34866;48.670;18.260;2022-07-30T01:23:42;461.60;2380.80
49052;DHT22;34866;48.670;18.260;2022-07-30T01:26:16;461.60;2380.80
49052;DHT22;34866;48.670;18.260;2022-07-30T01:28:49;461.60;2380.80
49052;DHT22;34866;48.670;18.260;2022-07-30T01:31:19;461.40;2380.80
49052;DHT22;34866;48.670;18.260;2022-07-30T01:33:50;461.40;2380.80
49052;DHT22;34866;48.670;18.260;2022-07-30T01:36:17;461.30;2380.80
49052;DHT22;34866;48.670;18.260;2022-07-30T01:38:47;461.30;2380.80
49052;DHT22;34866;48.670;18.260;2022-07-30T01:41:14;461.30;2380.80
49052;DHT22;34866;48.670;18.260;2022-07-30T01:43:44;461.30;2380.80
49052;DHT22;34866;48.670;18.260;2022-07-30T01:46:18;461.50;2380.80
49052;DHT22;34866;48.670;18.260;2022-07-30T01:48:50;461.60;2380.80
49052;DHT22;34866;48.670;18.260;2022-07-30T01:51:17;461.50;2380.80
49052;DHT22;34866;48.670;18.260;2022-07-30T01:54:07;461.70;2380.80
49052;DHT22;34866;48.670;18.260;2022-07-30T01:56:36;461.70;2380.80
49052;DHT22;34866;48.670;18.260;2022-07-30T01:59:04;486.40;2380.80
49052;DHT22;34866;48.670;18.260;2022-07-30T02:01:32;486.40;2380.80
49052;DHT22;34866;48.670;18.260;2022-07-30T02:04:00;486.40;2380.80
49052;DHT22;34866;48.670;18.260;2022-07-30T02:06:38;461.70;2380.80
49052;DHT22;34866;48.670;18.260;2022-07-30T02:09:06;461.70;2380.80
49052;DHT22;34866;48.670;18.260;2022-07-30T02:11:39;486.50;2380.80
49052;DHT22;34866;48.670;18.260;2022-07-30T02:14:30;486.50;2380.80
49052;DHT22;34866;48.670;18.260;2022-07-30T02:17:08;486.40;2380.80
49052;DHT22;34866;48.670;18.260;2022-07-30T02:19:41;461.70;2380.80
49052;DHT22;34866;48.670;18.260;2022-07-30T02:22:11;461.70;2380.80
49052;DHT22;34866;48.670;18.260;2022-07-30T02:24:40;461.60;2380.80
49052;DHT22;34866;48.670;18.260;2022-07-30T02:27:17;461.50;2380.80
49052;DHT22;34866;48.670;18.260;2022-07-30T02:29:46;461.60;2380.80
49052;DHT22;34866;48.670;18.260;2022-07-30T02:32:15;461.50;2380.80
49052;DHT22;34866;48.670;18.260;2022-07-30T02:34:45;461.40;2380.80
49052;DHT22;34866;48.670;18.260;2022-07-30T02:37:14;461.30;2380.80
49052;DHT22;34866;48.670;18.260;2022-07-30T02:39:42;461.40;2380.80
49052;DHT22;34866;48.670;18.260;2022-07-30T02:42:09;461.40;2380.80
49052;DHT22;34866;48.670;18.260;2022-07-30T02:44:43;461.30;2380.80
49052;DHT22;34866;48.670;18.260;2022-07-30T02:47:12;461.30;2380.80
49052;DHT22;34866;48.670;18.260;2022-07-30T02:49:40;461.30;2380.80
49052;DHT22;34866;48.670;18.260;2022-07-30T02:52:11;461.50;2380.80
49052;DHT22;34866;48.670;18.260;2022-07-30T02:54:56;461.20;2380.80
49052;DHT22;34866;48.670;18.260;2022-07-30T02:57:24;461.20;2380.80
49052;DHT22;34866;48.670;18.260;2022-07-30T02:59:52;461.30;2380.80
49052;DHT22;34866;48.670;18.260;2022-07-30T03:02:21;461.20;2380.80
49052;DHT22;34866;48.670;18.260;2022-07-30T03:04:55;461.20;2380.80
49052;DHT22;34866;48.670;18.260;2022-07-30T03:07:22;461.20;2380.80
49052;DHT22;34866;48.670;18.260;2022-07-30T03:09:53;461.20;2380.80
49052;DHT22;34866;48.670;18.260;2022-07-30T03:12:25;461.00;2380.80
49052;DHT22;34866;48.670;18.260;2022-07-30T03:14:55;460.90;2380.80
49052;DHT22;34866;48.670;18.260;2022-07-30T03:17:22;460.90;2380.80
49052;DHT22;34866;48.670;18.260;2022-07-30T03:19:51;460.90;2380.80
49052;DHT22;34866;48.670;18.260;2022-07-30T03:22:18;461.00;2380.80
49052;DHT22;34866;48.670;18.260;2022-07-30T03:25:08;461.00;2380.80
49052;DHT22;34866;48.670;18.260;2022-07-30T03:27:36;461.00;2380.80
49052;DHT22;34866;48.670;18.260;2022-07-30T03:30:03;461.10;2380.80
49052;DHT22;34866;48.670;18.260;2022-07-30T03:32:32;461.10;2380.80
49052;DHT22;34866;48.670;18.260;2022-07-30T03:34:59;461.00;2380.80
49052;DHT22;34866;48.670;18.260;2022-07-30T03:37:29;460.90;2380.80
49052;DHT22;34866;48.670;18.260;2022-07-30T03:39:56;460.90;2380.80
49052;DHT22;34866;48.670;18.260;2022-07-30T03:42:24;460.90;2380.80
49052;DHT22;34866;48.670;18.260;2022-07-30T03:44:51;460.90;2380.80
49052;DHT22;34866;48.670;18.260;2022-07-30T03:47:21;461.10;2380.80
49052;DHT22;34866;48.670;18.260;2022-07-30T03:50:10;461.20;2380.80
49052;DHT22;34866;48.670;18.260;2022-07-30T03:52:47;461.20;2380.80
49052;DHT22;34866;48.670;18.260;2022-07-30T03:55:24;461.20;2380.80
49052;DHT22;34866;48.670;18.260;2022-07-30T03:57:59;461.10;2380.80
49052;DHT22;34866;48.670;18.260;2022-07-30T04:00:31;461.00;2380.80
49052;DHT22;34866;48.670;18.260;2022-07-30T04:02:56;461.00;2380.80
49052;DHT22;34866;48.670;18.260;2022-07-30T04:05:27;461.00;2380.80
49052;DHT22;34866;48.670;18.260;2022-07-30T04:07:56;461.00;2380.80
49052;DHT22;34866;48.670;18.260;2022-07-30T04:10:21;461.20;2380.80
49052;DHT22;34866;48.670;18.260;2022-07-30T04:12:47;461.20;2380.80
49052;DHT22;34866;48.670;18.260;2022-07-30T04:15:13;461.40;2380.80
49052;DHT22;34866;48.670;18.260;2022-07-30T04:17:54;461.50;2380.80
49052;DHT22;34866;48.670;18.260;2022-07-30T04:20:36;461.50;2380.80
49052;DHT22;34866;48.670;18.260;2022-07-30T04:23:04;461.50;2380.80
49052;DHT22;34866;48.670;18.260;2022-07-30T04:25:32;461.50;2380.80
49052;DHT22;34866;48.670;18.260;2022-07-30T04:28:02;461.50;2380.80
49052;DHT22;34866;48.670;18.260;2022-07-30T04:30:48;461.60;2380.80
49052;DHT22;34866;48.670;18.260;2022-07-30T04:33:34;461.60;2380.80
49052;DHT22;34866;48.670;18.260;2022-07-30T04:36:05;461.70;2380.80
49052;DHT22;34866;48.670;18.260;2022-07-30T04:38:31;461.60;2380.80
49052;DHT22;34866;48.670;18.260;2022-07-30T04:40:57;461.60;2380.80
49052;DHT22;34866;48.670;18.260;2022-07-30T04:43:22;461.60;2380.80
49052;DHT22;34866;48.670;18.260;2022-07-30T04:46:10;461.60;2380.80
49052;DHT22;34866;48.670;18.260;2022-07-30T04:48:35;461.50;2380.80
49052;DHT22;34866;48.670;18.260;2022-07-30T04:51:08;461.50;2380.80
49052;DHT22;34866;48.670;18.260;2022-07-30T04:53:37;461.60;2380.80
49052;DHT22;34866;48.670;18.260;2022-07-30T04:56:08;461.70;2380.80
49052;DHT22;34866;48.670;18.260;2022-07-30T04:58:36;461.70;2380.80
49052;DHT22;34866;48.670;18.260;2022-07-30T05:01:08;461.70;2380.80
49052;DHT22;34866;48.670;18.260;2022-07-30T05:03:37;486.40;2380.80
49052;DHT22;34866;48.670;18.260;2022-07-30T05:06:05;486.40;2380.80
49052;DHT22;34866;48.670;18.260;2022-07-30T05:08:32;486.40;2380.80
49052;DHT22;34866;48.670;18.260;2022-07-30T05:10:57;486.40;2380.80
49052;DHT22;34866;48.670;18.260;2022-07-30T05:13:24;461.70;2380.80
49052;DHT22;34866;48.670;18.260;2022-07-30T05:15:50;461.70;2380.80
49052;DHT22;34866;48.670;18.260;2022-07-30T05:18:37;461.70;2380.80
49052;DHT22;34866;48.670;18.260;2022-07-30T05:21:06;461.70;2380.80
49052;DHT22;34866;48.670;18.260;2022-07-30T05:23:32;461.70;2380.80
49052;DHT22;34866;48.670;18.260;2022-07-30T05:25:58;461.70;2380.80
49052;DHT22;34866;48.670;18.260;2022-07-30T05:28:24;461.70;2380.80
49052;DHT22;34866;48.670;18.260;2022-07-30T05:30:55;461.70;2380.80
49052;DHT22;34866;48.670;18.260;2022-07-30T05:33:22;486.50;2380.80
49052;DHT22;34866;48.670;18.260;2022-07-30T05:35:49;461.10;2380.80
49052;DHT22;34866;48.670;18.260;2022-07-30T05:38:17;486.50;2380.80
49052;DHT22;34866;48.670;18.260;2022-07-30T05:40:43;486.50;2380.80
49052;DHT22;34866;48.670;18.260;2022-07-30T05:43:14;486.50;2380.80
49052;DHT22;34866;48.670;18.260;2022-07-30T05:45:39;486.60;2380.80
49052;DHT22;34866;48.670;18.260;2022-07-30T05:48:05;486.70;2380.80
49052;DHT22;34866;48.670;18.260;2022-07-30T05:50:31;486.80;2380.80
49052;DHT22;34866;48.670;18.260;2022-07-30T05:53:00;486.80;2380.80
49052;DHT22;34866;48.670;18.260;2022-07-30T05:55:25;486.90;2380.80
49052;DHT22;34866;48.670;18.260;2022-07-30T05:57:51;487.00;2380.80
49052;DHT22;34866;48.670;18.260;2022-07-30T06:00:22;487.10;2380.80
49052;DHT22;34866;48.670;18.260;2022-07-30T06:02:49;487.10;2380.80
49052;DHT22;34866;48.670;18.260;2022-07-30T06:05:18;487.10;2380.80
49052;DHT22;34866;48.670;18.260;2022-07-30T06:07:44;487.10;2380.80
49052;DHT22;34866;48.670;18.260;2022-07-30T06:10:10;487.20;2380.80
49052;DHT22;34866;48.670;18.260;2022-07-30T06:12:41;487.10;2380.80
49052;DHT22;34866;48.670;18.260;2022-07-30T06:15:12;487.20;2380.80
49052;DHT22;34866;48.670;18.260;2022-07-30T06:17:46;487.30;2380.80
49052;DHT22;34866;48.670;18.260;2022-07-30T06:20:14;487.10;2380.80
49052;DHT22;34866;48.670;18.260;2022-07-30T06:22:43;487.20;2380.80
49052;DHT22;34866;48.670;18.260;2022-07-30T06:25:09;512.00;2380.80
49052;DHT22;34866;48.670;18.260;2022-07-30T06:27:38;512.00;2380.80
49052;DHT22;34866;48.670;18.260;2022-07-30T06:30:09;512.10;2380.80
49052;DHT22;34866;48.670;18.260;2022-07-30T06:32:37;512.00;2380.80
49052;DHT22;34866;48.670;18.260;2022-07-30T06:35:06;512.00;2380.80
49052;DHT22;34866;48.670;18.260;2022-07-30T06:37:38;512.00;2380.80
49052;DHT22;34866;48.670;18.260;2022-07-30T06:40:08;512.10;2380.80
49052;DHT22;34866;48.670;18.260;2022-07-30T06:42:34;512.10;2380.80
49052;DHT22;34866;48.670;18.260;2022-07-30T06:45:02;512.00;2380.80
49052;DHT22;34866;48.670;18.260;2022-07-30T06:47:29;487.30;2380.80
49052;DHT22;34866;48.670;18.260;2022-07-30T06:49:56;512.00;2380.80
49052;DHT22;34866;48.670;18.260;2022-07-30T06:52:25;487.30;2380.80
49052;DHT22;34866;48.670;18.260;2022-07-30T06:54:51;487.10;2380.80
49052;DHT22;34866;48.670;18.260;2022-07-30T06:57:17;487.10;2380.80
49052;DHT22;34866;48.670;18.260;2022-07-30T06:59:46;487.00;2380.80
49052;DHT22;34866;48.670;18.260;2022-07-30T07:02:31;487.10;2380.80
49052;DHT22;34866;48.670;18.260;2022-07-30T07:05:18;486.90;2380.80
49052;DHT22;34866;48.670;18.260;2022-07-30T07:08:11;486.80;2380.80
49052;DHT22;34866;48.670;18.260;2022-07-30T07:10:38;486.70;2380.80
49052;DHT22;34866;48.670;18.260;2022-07-30T07:13:15;486.70;2380.80
49052;DHT22;34866;48.670;18.260;2022-07-30T07:16:13;486.70;2380.80
49052;DHT22;34866;48.670;18.260;2022-07-30T07:19:12;486.70;2380.80
49052;DHT22;34866;48.670;18.260;2022-07-30T07:25:27;486.60;2380.80
49052;DHT22;34866;48.670;18.260;2022-07-30T07:28:15;486.60;2380.80
49052;DHT22;34866;48.670;18.260;2022-07-30T07:30:46;486.80;2380.80
49052;DHT22;34866;48.670;18.260;2022-07-30T07:33:15;486.60;2380.80
49052;DHT22;34866;48.670;18.260;2022-07-30T07:36:16;486.70;2380.80
49052;DHT22;34866;48.670;18.260;2022-07-30T07:39:03;486.50;2380.80
49052;DHT22;34866;48.670;18.260;2022-07-30T07:41:50;486.50;2380.80
49052;DHT22;34866;48.670;18.260;2022-07-30T07:44:17;486.60;2380.80
49052;DHT22;34866;48.670;18.260;2022-07-30T07:46:43;486.60;2380.80
49052;DHT22;34866;48.670;18.260;2022-07-30T07:49:10;486.60;2380.80
49052;DHT22;34866;48.670;18.260;2022-07-30T07:52:13;486.60;2380.80
49052;DHT22;34866;48.670;18.260;2022-07-30T07:58:28;486.50;2380.80
49052;DHT22;34866;48.670;18.260;2022-07-30T08:00:56;486.50;2380.80
49052;DHT22;34866;48.670;18.260;2022-07-30T08:03:49;486.50;2380.80
49052;DHT22;34866;48.670;18.260;2022-07-30T08:10:35;486.50;2380.80
49052;DHT22;34866;48.670;18.260;2022-07-30T08:13:30;486.50;2380.80
49052;DHT22;34866;48.670;18.260;2022-07-30T08:16:00;486.60;2380.80
49052;DHT22;34866;48.670;18.260;2022-07-30T08:18:48;486.60;2380.80
49052;DHT22;34866;48.670;18.260;2022-07-30T08:22:00;486.50;2380.80
49052;DHT22;34866;48.670;18.260;2022-07-30T08:24:49;486.50;2380.80
49052;DHT22;34866;48.670;18.260;2022-07-30T08:46:07;461.70;2380.80
49052;DHT22;34866;48.670;18.260;2022-07-30T08:49:37;461.70;2380.80
49052;DHT22;34866;48.670;18.260;2022-07-30T08:52:31;461.60;2380.80
49052;DHT22;34866;48.670;18.260;2022-07-30T08:55:29;461.60;2380.80
49052;DHT22;34866;48.670;18.260;2022-07-30T08:58:24;461.70;2380.80
49052;DHT22;34866;48.670;18.260;2022-07-30T09:01:24;486.40;2380.80
49052;DHT22;34866;48.670;18.260;2022-07-30T09:07:43;486.50;2380.80
49052;DHT22;34866;48.670;18.260;2022-07-30T09:14:25;486.40;2380.80
49052;DHT22;34866;48.670;18.260;2022-07-30T09:21:01;486.40;2380.80
49052;DHT22;34866;48.670;18.260;2022-07-30T09:27:48;486.50;2380.80
49052;DHT22;34866;48.670;18.260;2022-07-30T09:31:04;486.40;2380.80
49052;DHT22;34866;48.670;18.260;2022-07-30T09:33:41;486.40;2380.80
49052;DHT22;34866;48.670;18.260;2022-07-30T09:36:33;486.40;2380.80
49052;DHT22;34866;48.670;18.260;2022-07-30T09:39:06;486.50;2380.80
49052;DHT22;34866;48.670;18.260;2022-07-30T09:41:34;486.50;2380.80
49052;DHT22;34866;48.670;18.260;2022-07-30T09:44:38;486.50;2380.80
49052;DHT22;34866;48.670;18.260;2022-07-30T09:50:47;486.40;2380.80
49052;DHT22;34866;48.670;18.260;2022-07-30T09:53:56;486.40;2380.80
49052;DHT22;34866;48.670;18.260;2022-07-30T09:57:04;486.50;2380.80
49052;DHT22;34866;48.670;18.260;2022-07-30T09:59:36;486.40;2380.80
49052;DHT22;34866;48.670;18.260;2022-07-30T10:02:11;486.50;2380.80
49052;DHT22;34866;48.670;18.260;2022-07-30T10:04:39;486.50;2380.80
49052;DHT22;34866;48.670;18.260;2022-07-30T10:07:19;486.50;2380.80
49052;DHT22;34866;48.670;18.260;2022-07-30T10:09:48;486.40;2380.80
49052;DHT22;34866;48.670;18.260;2022-07-30T10:12:42;486.50;2380.80
49052;DHT22;34866;48.670;18.260;2022-07-30T10:15:11;486.60;2380.80
49052;DHT22;34866;48.670;18.260;2022-07-30T10:17:39;486.60;2380.80
49052;DHT22;34866;48.670;18.260;2022-07-30T10:20:09;486.60;2380.80
49052;DHT22;34866;48.670;18.260;2022-07-30T10:22:38;486.70;2380.80
49052;DHT22;34866;48.670;18.260;2022-07-30T10:25:07;486.60;2380.80
49052;DHT22;34866;48.670;18.260;2022-07-30T10:28:13;486.50;2380.80
49052;DHT22;34866;48.670;18.260;2022-07-30T10:34:26;486.60;2380.80
49052;DHT22;34866;48.670;18.260;2022-07-30T10:37:20;486.60;2380.80
49052;DHT22;34866;48.670;18.260;2022-07-30T10:46:33;486.70;2380.80
49052;DHT22;34866;48.670;18.260;2022-07-30T10:52:53;486.80;2380.80
49052;DHT22;34866;48.670;18.260;2022-07-30T10:55:43;486.70;2380.80
49052;DHT22;34866;48.670;18.260;2022-07-30T10:58:12;486.80;2380.80
49052;DHT22;34866;48.670;18.260;2022-07-30T11:01:06;486.80;2380.80
49052;DHT22;34866;48.670;18.260;2022-07-30T11:03:33;486.80;2380.80
49052;DHT22;34866;48.670;18.260;2022-07-30T11:06:29;486.80;2380.80
49052;DHT22;34866;48.670;18.260;2022-07-30T11:08:58;487.00;2380.80
49052;DHT22;34866;48.670;18.260;2022-07-30T11:12:06;487.10;2380.80
49052;DHT22;34866;48.670;18.260;2022-07-30T11:15:12;487.00;2380.80
49052;DHT22;34866;48.670;18.260;2022-07-30T11:18:25;487.00;2380.80
49052;DHT22;34866;48.670;18.260;2022-07-30T11:21:18;487.00;2380.80
49052;DHT22;34866;48.670;18.260;2022-07-30T11:23:45;487.10;2380.80
49052;DHT22;34866;48.670;18.260;2022-07-30T11:29:57;486.90;2380.80
49052;DHT22;34866;48.670;18.260;2022-07-30T11:36:13;487.10;2380.80
49052;DHT22;34866;48.670;18.260;2022-07-30T11:39:09;487.00;2380.80
49052;DHT22;34866;48.670;18.260;2022-07-30T11:45:18;487.20;2380.80
49052;DHT22;34866;48.670;18.260;2022-07-30T11:47:58;487.20;2380.80
49052;DHT22;34866;48.670;18.260;2022-07-30T11:50:51;487.10;2380.80
49052;DHT22;34866;48.670;18.260;2022-07-30T11:53:20;487.10;2380.80
49052;DHT22;34866;48.670;18.260;2022-07-30T11:56:35;487.20;2380.80
49052;DHT22;34866;48.670;18.260;2022-07-30T12:02:03;487.10;2380.80
49052;DHT22;34866;48.670;18.260;2022-07-30T12:04:31;487.00;2380.80
49052;DHT22;34866;48.670;18.260;2022-07-30T12:06:58;487.00;2380.80
49052;DHT22;34866;48.670;18.260;2022-07-30T12:09:31;487.20;2380.80
49052;DHT22;34866;48.670;18.260;2022-07-30T12:12:23;487.20;2380.80
49052;DHT22;34866;48.670;18.260;2022-07-30T12:15:00;487.10;2380.80
49052;DHT22;34866;48.670;18.260;2022-07-30T12:17:45;487.30;2380.80
49052;DHT22;34866;48.670;18.260;2022-07-30T12:20:21;512.10;2380.80
49052;DHT22;34866;48.670;18.260;2022-07-30T12:22:47;512.20;2380.80
49052;DHT22;34866;48.670;18.260;2022-07-30T12:25:15;512.20;2380.80
49052;DHT22;34866;48.670;18.260;2022-07-30T12:28:19;512.20;2380.80
49052;DHT22;34866;48.670;18.260;2022-07-30T12:31:17;512.30;2380.80
49052;DHT22;34866;48.670;18.260;2022-07-30T12:34:29;512.30;2380.80
49052;DHT22;34866;48.670;18.260;2022-07-30T12:37:10;512.30;2380.80
49052;DHT22;34866;48.670;18.260;2022-07-30T12:39:40;512.70;2380.80
49052;DHT22;34866;48.670;18.260;2022-07-30T12:42:19;512.70;2380.80
49052;DHT22;34866;48.670;18.260;2022-07-30T12:44:46;537.60;2406.40
49052;DHT22;34866;48.670;18.260;2022-07-30T12:47:21;512.70;2380.80
49052;DHT22;34866;48.670;18.260;2022-07-30T12:50:15;512.80;2329.60
49052;DHT22;34866;48.670;18.260;2022-07-30T12:52:48;512.60;2380.80
49052;DHT22;34866;48.670;18.260;2022-07-30T12:55:16;512.70;2252.80
49052;DHT22;34866;48.670;18.260;2022-07-30T12:58:04;512.70;2380.80
49052;DHT22;34866;48.670;18.260;2022-07-30T13:00:54;512.80;2278.40
49052;DHT22;34866;48.670;18.260;2022-07-30T13:03:42;537.80;2406.40
49052;DHT22;34866;48.670;18.260;2022-07-30T13:06:32;537.70;2406.40
49052;DHT22;34866;48.670;18.260;2022-07-30T13:09:27;512.80;2380.80
49052;DHT22;34866;48.670;18.260;2022-07-30T13:11:56;512.80;2380.80
49052;DHT22;34866;48.670;18.260;2022-07-30T13:14:24;537.60;2406.40
49052;DHT22;34866;48.670;18.260;2022-07-30T13:16:52;537.60;2406.40
49052;DHT22;34866;48.670;18.260;2022-07-30T13:19:39;537.60;2406.40
49052;DHT22;34866;48.670;18.260;2022-07-30T13:22:08;537.60;2406.40
49052;DHT22;34866;48.670;18.260;2022-07-30T13:24:34;537.60;2099.20
49052;DHT22;34866;48.670;18.260;2022-07-30T13:27:41;537.60;2406.40
49052;DHT22;34866;48.670;18.260;2022-07-30T13:30:50;537.60;2406.40
49052;DHT22;34866;48.670;18.260;2022-07-30T13:34:01;537.80;2406.40
49052;DHT22;34866;48.670;18.260;2022-07-30T13:37:08;537.90;2406.40
49052;DHT22;34866;48.670;18.260;2022-07-30T13:40:13;538.00;2406.40
49052;DHT22;34866;48.670;18.260;2022-07-30T13:43:20;538.00;2406.40
49052;DHT22;34866;48.670;18.260;2022-07-30T13:49:28;538.20;2406.40
49052;DHT22;34866;48.670;18.260;2022-07-30T13:52:38;538.00;2406.40
49052;DHT22;34866;48.670;18.260;2022-07-30T13:58:54;538.40;2406.40
49052;DHT22;34866;48.670;18.260;2022-07-30T14:01:20;538.50;2406.40
49052;DHT22;34866;48.670;18.260;2022-07-30T14:04:29;563.30;2432.00
49052;DHT22;34866;48.670;18.260;2022-07-30T14:08:04;563.40;2432.00
49052;DHT22;34866;48.670;18.260;2022-07-30T14:35:00;538.30;2406.40
49052;DHT22;34866;48.670;18.260;2022-07-30T14:38:59;538.40;2406.40
49052;DHT22;34866;48.670;18.260;2022-07-30T14:46:23;538.40;2406.40
49052;DHT22;34866;48.670;18.260;2022-07-30T14:53:11;563.30;2406.40
49052;DHT22;34866;48.670;18.260;2022-07-30T14:56:01;563.50;2432.00
49052;DHT22;34866;48.670;18.260;2022-07-30T15:02:35;563.30;2432.00
49052;DHT22;34866;48.670;18.260;2022-07-30T15:05:34;563.40;2380.80
49052;DHT22;34866;48.670;18.260;2022-07-30T15:08:29;563.20;2432.00
49052;DHT22;34866;48.670;18.260;2022-07-30T15:11:56;563.30;2432.00
49052;DHT22;34866;48.670;18.260;2022-07-30T15:19:00;563.50;2099.20
49052;DHT22;34866;48.670;18.260;2022-07-30T15:22:14;563.60;2432.00
49052;DHT22;34866;48.670;18.260;2022-07-30T15:25:29;564.10;2432.00
49052;DHT22;34866;48.670;18.260;2022-07-30T15:32:57;615.00;2432.00
49052;DHT22;34866;48.670;18.260;2022-07-30T15:39:44;589.20;2432.00
49052;DHT22;34866;48.670;18.260;2022-07-30T15:42:10;588.80;2432.00
49052;DHT22;34866;48.670;18.260;2022-07-30T15:44:56;563.80;2432.00
49052;DHT22;34866;48.670;18.260;2022-07-30T15:47:26;563.80;2432.00
49052;DHT22;34866;48.670;18.260;2022-07-30T15:50:04;564.00;2432.00
49052;DHT22;34866;48.670;18.260;2022-07-30T15:55:53;588.90;2432.00
49052;DHT22;34866;48.670;18.260;2022-07-30T15:58:43;588.90;2432.00
49052;DHT22;34866;48.670;18.260;2022-07-30T16:01:41;588.80;2432.00
49052;DHT22;34866;48.670;18.260;2022-07-30T16:04:11;564.10;2432.00
49052;DHT22;34866;48.670;18.260;2022-07-30T16:06:42;563.60;2432.00
49052;DHT22;34866;48.670;18.260;2022-07-30T16:09:15;563.50;2432.00
49052;DHT22;34866;48.670;18.260;2022-07-30T16:15:22;563.40;2432.00
49052;DHT22;34866;48.670;18.260;2022-07-30T16:18:16;563.50;2432.00
49052;DHT22;34866;48.670;18.260;2022-07-30T16:21:05;563.40;2432.00
49052;DHT22;34866;48.670;18.260;2022-07-30T16:24:13;563.40;2432.00
49052;DHT22;34866;48.670;18.260;2022-07-30T16:26:51;563.30;2432.00
49052;DHT22;34866;48.670;18.260;2022-07-30T16:29:37;538.50;2406.40
49052;DHT22;34866;48.670;18.260;2022-07-30T16:32:04;563.20;2432.00
49052;DHT22;34866;48.670;18.260;2022-07-30T16:34:39;563.20;2432.00
49052;DHT22;34866;48.670;18.260;2022-07-30T16:37:08;563.20;2073.60
49052;DHT22;34866;48.670;18.260;2022-07-30T16:39:37;538.30;2406.40
49052;DHT22;34866;48.670;18.260;2022-07-30T16:42:05;538.30;2304.00
49052;DHT22;34866;48.670;18.260;2022-07-30T16:44:53;538.30;2073.60
49052;DHT22;34866;48.670;18.260;2022-07-30T16:47:41;538.30;2406.40
49052;DHT22;34866;48.670;18.260;2022-07-30T16:50:17;538.20;2406.40
49052;DHT22;34866;48.670;18.260;2022-07-30T16:53:17;538.10;2406.40
49052;DHT22;34866;48.670;18.260;2022-07-30T16:55:47;538.10;2406.40
49052;DHT22;34866;48.670;18.260;2022-07-30T16:58:34;538.00;2406.40
49052;DHT22;34866;48.670;18.260;2022-07-30T17:01:24;538.00;2406.40
49052;DHT22;34866;48.670;18.260;2022-07-30T17:03:58;538.00;2406.40
49052;DHT22;34866;48.670;18.260;2022-07-30T17:06:49;538.00;2406.40
49052;DHT22;34866;48.670;18.260;2022-07-30T17:09:35;537.70;2406.40
49052;DHT22;34866;48.670;18.260;2022-07-30T17:12:13;537.60;2406.40
49052;DHT22;34866;48.670;18.260;2022-07-30T17:15:03;537.70;2406.40
49052;DHT22;34866;48.670;18.260;2022-07-30T17:17:44;537.70;2406.40
49052;DHT22;34866;48.670;18.260;2022-07-30T17:20:43;537.70;2406.40
49052;DHT22;34866;48.670;18.260;2022-07-30T17:23:24;512.90;2380.80
49052;DHT22;34866;48.670;18.260;2022-07-30T17:29:32;512.40;2380.80
49052;DHT22;34866;48.670;18.260;2022-07-30T17:35:26;512.00;2380.80
49052;DHT22;34866;48.670;18.260;2022-07-30T17:38:01;487.30;2380.80
49052;DHT22;34866;48.670;18.260;2022-07-30T17:40:27;487.10;2380.80
49052;DHT22;34866;48.670;18.260;2022-07-30T17:42:53;486.90;2380.80
49052;DHT22;34866;48.670;18.260;2022-07-30T17:45:20;486.80;2380.80
49052;DHT22;34866;48.670;18.260;2022-07-30T17:47:48;486.80;2380.80
49052;DHT22;34866;48.670;18.260;2022-07-30T17:50:37;486.70;2380.80
49052;DHT22;34866;48.670;18.260;2022-07-30T17:53:05;486.60;2380.80
49052;DHT22;34866;48.670;18.260;2022-07-30T17:55:37;486.80;2380.80
49052;DHT22;34866;48.670;18.260;2022-07-30T17:58:05;486.60;2380.80
49052;DHT22;34866;48.670;18.260;2022-07-30T18:00:43;486.60;2380.80
49052;DHT22;34866;48.670;18.260;2022-07-30T18:03:31;486.40;2380.80
49052;DHT22;34866;48.670;18.260;2022-07-30T18:09:03;486.50;2380.80
49052;DHT22;34866;48.670;18.260;2022-07-30T18:11:51;486.50;2380.80
49052;DHT22;34866;48.670;18.260;2022-07-30T18:21:26;486.50;2380.80
49052;DHT22;34866;48.670;18.260;2022-07-30T18:39:07;486.40;2380.80
49052;DHT22;34866;48.670;18.260;2022-07-30T18:42:35;461.70;2380.80
49052;DHT22;34866;48.670;18.260;2022-07-30T18:51:48;461.70;2380.80